Terminal Aerodrome Forecast
Issued by NWS Greer, SC

Home | Current Version | Previous Version | Text Only | Print | Product List | Glossary On
Versions: 1 2 3 4 5 6 7 8 9 10 11 12 13 14 15 16 17 18 19 20 21 22
000
FTUS42 KGSP 242159 AAB
TAFGSP
TAF AMD
KGSP 242159Z 2422/2518 04008KT P6SM VCSH BKN025
      TEMPO 2423/2503 3SM TSRA OVC018CB
     FM250300 08004KT P6SM VCSH OVC015
     FM250800 10004KT 6SM BR BKN007
     FM251400 11004KT P6SM VCSH BKN011 OVC022=

USA.gov is the U.S. government's official web portal to all federal, state and local government web resources and services.